sensor_id;sensor_type;location;lat;lon;timestamp;P1;durP1;ratioP1;P2;durP2;ratioP2
21721;SDS011;11023;48.274;7.794;2023-04-03T00:01:13;5.05;;;2.60;;
21721;SDS011;11023;48.274;7.794;2023-04-03T00:03:39;3.80;;;3.10;;
21721;SDS011;11023;48.274;7.794;2023-04-03T00:06:06;4.75;;;2.92;;
21721;SDS011;11023;48.274;7.794;2023-04-03T00:08:33;4.60;;;2.53;;
21721;SDS011;11023;48.274;7.794;2023-04-03T00:11:00;5.22;;;2.70;;
21721;SDS011;11023;48.274;7.794;2023-04-03T00:13:26;4.38;;;2.72;;
21721;SDS011;11023;48.274;7.794;2023-04-03T00:15:52;2.92;;;2.67;;
21721;SDS011;11023;48.274;7.794;2023-04-03T00:18:17;3.70;;;2.50;;
21721;SDS011;11023;48.274;7.794;2023-04-03T00:20:43;2.97;;;2.67;;
21721;SDS011;11023;48.274;7.794;2023-04-03T00:23:09;4.55;;;3.03;;
21721;SDS011;11023;48.274;7.794;2023-04-03T00:25:35;6.00;;;2.70;;
21721;SDS011;11023;48.274;7.794;2023-04-03T00:28:01;2.55;;;2.33;;
21721;SDS011;11023;48.274;7.794;2023-04-03T00:30:28;4.18;;;3.10;;
21721;SDS011;11023;48.274;7.794;2023-04-03T00:32:53;3.28;;;2.70;;
21721;SDS011;11023;48.274;7.794;2023-04-03T00:35:20;4.78;;;2.47;;
21721;SDS011;11023;48.274;7.794;2023-04-03T00:37:46;3.10;;;2.40;;
21721;SDS011;11023;48.274;7.794;2023-04-03T00:40:13;4.75;;;2.70;;
21721;SDS011;11023;48.274;7.794;2023-04-03T00:42:40;2.85;;;2.55;;
21721;SDS011;11023;48.274;7.794;2023-04-03T00:47:35;3.00;;;2.40;;
21721;SDS011;11023;48.274;7.794;2023-04-03T00:50:02;3.05;;;2.50;;
21721;SDS011;11023;48.274;7.794;2023-04-03T00:52:29;2.90;;;2.47;;
21721;SDS011;11023;48.274;7.794;2023-04-03T00:55:00;3.13;;;2.35;;
21721;SDS011;11023;48.274;7.794;2023-04-03T00:57:29;3.22;;;2.33;;
21721;SDS011;11023;48.274;7.794;2023-04-03T00:59:57;4.90;;;2.60;;
21721;SDS011;11023;48.274;7.794;2023-04-03T01:02:26;4.10;;;2.47;;
21721;SDS011;11023;48.274;7.794;2023-04-03T01:04:52;4.30;;;2.50;;
21721;SDS011;11023;48.274;7.794;2023-04-03T01:07:19;3.90;;;2.50;;
21721;SDS011;11023;48.274;7.794;2023-04-03T01:09:48;4.22;;;2.50;;
21721;SDS011;11023;48.274;7.794;2023-04-03T01:12:18;3.97;;;2.47;;
21721;SDS011;11023;48.274;7.794;2023-04-03T01:15:13;3.35;;;2.40;;
21721;SDS011;11023;48.274;7.794;2023-04-03T01:17:46;3.15;;;2.20;;
21721;SDS011;11023;48.274;7.794;2023-04-03T01:22:52;5.80;;;2.67;;
21721;SDS011;11023;48.274;7.794;2023-04-03T01:25:33;5.82;;;2.70;;
21721;SDS011;11023;48.274;7.794;2023-04-03T01:28:01;4.22;;;2.63;;
21721;SDS011;11023;48.274;7.794;2023-04-03T01:30:29;3.30;;;2.50;;
21721;SDS011;11023;48.274;7.794;2023-04-03T01:32:57;5.22;;;2.60;;
21721;SDS011;11023;48.274;7.794;2023-04-03T01:35:23;4.90;;;2.83;;
21721;SDS011;11023;48.274;7.794;2023-04-03T01:37:49;4.13;;;2.72;;
21721;SDS011;11023;48.274;7.794;2023-04-03T01:40:15;3.35;;;2.50;;
21721;SDS011;11023;48.274;7.794;2023-04-03T01:42:40;6.47;;;3.05;;
21721;SDS011;11023;48.274;7.794;2023-04-03T01:45:06;5.07;;;2.70;;
21721;SDS011;11023;48.274;7.794;2023-04-03T01:47:32;6.28;;;3.03;;
21721;SDS011;11023;48.274;7.794;2023-04-03T01:49:58;4.07;;;2.80;;
21721;SDS011;11023;48.274;7.794;2023-04-03T01:52:23;5.15;;;2.95;;
21721;SDS011;11023;48.274;7.794;2023-04-03T01:54:49;3.97;;;2.55;;
21721;SDS011;11023;48.274;7.794;2023-04-03T01:57:15;4.97;;;2.72;;
21721;SDS011;11023;48.274;7.794;2023-04-03T01:59:41;4.28;;;2.70;;
21721;SDS011;11023;48.274;7.794;2023-04-03T02:02:07;3.83;;;2.58;;
21721;SDS011;11023;48.274;7.794;2023-04-03T02:04:33;4.55;;;2.55;;
21721;SDS011;11023;48.274;7.794;2023-04-03T02:06:59;2.95;;;2.55;;
21721;SDS011;11023;48.274;7.794;2023-04-03T02:09:25;5.07;;;2.90;;
21721;SDS011;11023;48.274;7.794;2023-04-03T02:11:52;3.25;;;2.50;;
21721;SDS011;11023;48.274;7.794;2023-04-03T02:14:18;4.07;;;2.55;;
21721;SDS011;11023;48.274;7.794;2023-04-03T02:16:43;6.25;;;3.20;;
21721;SDS011;11023;48.274;7.794;2023-04-03T02:19:09;3.90;;;2.45;;
21721;SDS011;11023;48.274;7.794;2023-04-03T02:21:35;4.68;;;2.65;;
21721;SDS011;11023;48.274;7.794;2023-04-03T02:24:00;3.50;;;2.70;;
21721;SDS011;11023;48.274;7.794;2023-04-03T02:26:26;4.90;;;2.72;;
21721;SDS011;11023;48.274;7.794;2023-04-03T02:28:51;4.38;;;2.70;;
21721;SDS011;11023;48.274;7.794;2023-04-03T02:31:17;5.75;;;2.88;;
21721;SDS011;11023;48.274;7.794;2023-04-03T02:33:43;5.35;;;2.65;;
21721;SDS011;11023;48.274;7.794;2023-04-03T02:36:09;3.42;;;2.80;;
21721;SDS011;11023;48.274;7.794;2023-04-03T02:38:35;5.57;;;2.88;;
21721;SDS011;11023;48.274;7.794;2023-04-03T02:41:05;4.03;;;2.70;;
21721;SDS011;11023;48.274;7.794;2023-04-03T02:43:32;4.25;;;2.65;;
21721;SDS011;11023;48.274;7.794;2023-04-03T02:45:58;4.90;;;3.03;;
21721;SDS011;11023;48.274;7.794;2023-04-03T02:48:24;5.28;;;2.92;;
21721;SDS011;11023;48.274;7.794;2023-04-03T02:50:50;3.58;;;2.65;;
21721;SDS011;11023;48.274;7.794;2023-04-03T02:53:16;6.82;;;3.20;;
21721;SDS011;11023;48.274;7.794;2023-04-03T02:55:42;3.95;;;2.85;;
21721;SDS011;11023;48.274;7.794;2023-04-03T02:58:08;4.32;;;2.78;;
21721;SDS011;11023;48.274;7.794;2023-04-03T03:00:34;3.85;;;3.10;;
21721;SDS011;11023;48.274;7.794;2023-04-03T03:03:00;5.85;;;2.83;;
21721;SDS011;11023;48.274;7.794;2023-04-03T03:05:26;4.40;;;2.90;;
21721;SDS011;11023;48.274;7.794;2023-04-03T03:07:52;5.28;;;3.03;;
21721;SDS011;11023;48.274;7.794;2023-04-03T03:10:18;4.82;;;3.15;;
21721;SDS011;11023;48.274;7.794;2023-04-03T03:12:44;4.93;;;2.60;;
21721;SDS011;11023;48.274;7.794;2023-04-03T03:15:10;5.65;;;2.75;;
21721;SDS011;11023;48.274;7.794;2023-04-03T03:17:36;5.13;;;2.78;;
21721;SDS011;11023;48.274;7.794;2023-04-03T03:20:03;5.43;;;2.75;;
21721;SDS011;11023;48.274;7.794;2023-04-03T03:22:29;5.43;;;2.90;;
21721;SDS011;11023;48.274;7.794;2023-04-03T03:24:55;3.13;;;2.55;;
21721;SDS011;11023;48.274;7.794;2023-04-03T03:27:21;4.45;;;2.70;;
21721;SDS011;11023;48.274;7.794;2023-04-03T03:29:46;5.75;;;2.70;;
21721;SDS011;11023;48.274;7.794;2023-04-03T03:32:12;4.63;;;2.90;;
21721;SDS011;11023;48.274;7.794;2023-04-03T03:34:38;5.28;;;2.80;;
21721;SDS011;11023;48.274;7.794;2023-04-03T03:37:03;6.18;;;2.83;;
21721;SDS011;11023;48.274;7.794;2023-04-03T03:39:29;3.95;;;2.80;;
21721;SDS011;11023;48.274;7.794;2023-04-03T03:41:55;3.95;;;3.00;;
21721;SDS011;11023;48.274;7.794;2023-04-03T03:44:21;3.75;;;2.70;;
21721;SDS011;11023;48.274;7.794;2023-04-03T03:46:46;4.65;;;2.83;;
21721;SDS011;11023;48.274;7.794;2023-04-03T03:49:12;4.15;;;2.92;;
21721;SDS011;11023;48.274;7.794;2023-04-03T03:51:38;5.03;;;3.05;;
21721;SDS011;11023;48.274;7.794;2023-04-03T03:54:05;5.55;;;3.00;;
21721;SDS011;11023;48.274;7.794;2023-04-03T03:56:31;4.28;;;2.63;;
21721;SDS011;11023;48.274;7.794;2023-04-03T03:58:57;5.07;;;2.92;;
21721;SDS011;11023;48.274;7.794;2023-04-03T04:01:23;4.30;;;2.40;;
21721;SDS011;11023;48.274;7.794;2023-04-03T04:03:49;6.35;;;2.70;;
21721;SDS011;11023;48.274;7.794;2023-04-03T04:06:15;6.97;;;2.95;;
21721;SDS011;11023;48.274;7.794;2023-04-03T04:08:41;4.75;;;2.67;;
21721;SDS011;11023;48.274;7.794;2023-04-03T04:11:07;3.58;;;2.80;;
21721;SDS011;11023;48.274;7.794;2023-04-03T04:13:33;5.82;;;3.30;;
21721;SDS011;11023;48.274;7.794;2023-04-03T04:16:00;4.47;;;2.80;;
21721;SDS011;11023;48.274;7.794;2023-04-03T04:18:25;4.40;;;2.70;;
21721;SDS011;11023;48.274;7.794;2023-04-03T04:20:51;3.25;;;2.83;;
21721;SDS011;11023;48.274;7.794;2023-04-03T04:23:17;5.35;;;2.95;;
21721;SDS011;11023;48.274;7.794;2023-04-03T04:25:44;3.97;;;2.90;;
21721;SDS011;11023;48.274;7.794;2023-04-03T04:28:10;4.18;;;2.60;;
21721;SDS011;11023;48.274;7.794;2023-04-03T04:30:36;4.30;;;2.60;;
21721;SDS011;11023;48.274;7.794;2023-04-03T04:33:02;7.20;;;2.95;;
21721;SDS011;11023;48.274;7.794;2023-04-03T04:35:28;5.07;;;2.67;;
21721;SDS011;11023;48.274;7.794;2023-04-03T04:37:54;4.40;;;2.85;;
21721;SDS011;11023;48.274;7.794;2023-04-03T04:40:19;3.45;;;2.92;;
21721;SDS011;11023;48.274;7.794;2023-04-03T04:42:45;3.95;;;3.05;;
21721;SDS011;11023;48.274;7.794;2023-04-03T04:45:11;8.80;;;3.05;;
21721;SDS011;11023;48.274;7.794;2023-04-03T04:47:37;5.45;;;3.00;;
21721;SDS011;11023;48.274;7.794;2023-04-03T04:50:03;3.88;;;3.45;;
21721;SDS011;11023;48.274;7.794;2023-04-03T04:52:29;4.38;;;3.08;;
21721;SDS011;11023;48.274;7.794;2023-04-03T04:54:55;4.97;;;2.88;;
21721;SDS011;11023;48.274;7.794;2023-04-03T04:57:21;5.40;;;3.03;;
21721;SDS011;11023;48.274;7.794;2023-04-03T04:59:46;7.32;;;3.33;;
21721;SDS011;11023;48.274;7.794;2023-04-03T05:02:14;4.75;;;2.90;;
21721;SDS011;11023;48.274;7.794;2023-04-03T05:04:40;4.80;;;3.00;;
21721;SDS011;11023;48.274;7.794;2023-04-03T05:07:06;6.97;;;3.08;;
21721;SDS011;11023;48.274;7.794;2023-04-03T05:09:31;4.47;;;2.88;;
21721;SDS011;11023;48.274;7.794;2023-04-03T05:11:57;4.68;;;3.10;;
21721;SDS011;11023;48.274;7.794;2023-04-03T05:14:23;7.53;;;3.28;;
21721;SDS011;11023;48.274;7.794;2023-04-03T05:16:49;5.30;;;3.08;;
21721;SDS011;11023;48.274;7.794;2023-04-03T05:19:17;4.85;;;3.10;;
21721;SDS011;11023;48.274;7.794;2023-04-03T05:21:44;3.75;;;2.88;;
21721;SDS011;11023;48.274;7.794;2023-04-03T05:24:10;4.55;;;2.95;;
21721;SDS011;11023;48.274;7.794;2023-04-03T05:26:35;9.30;;;3.53;;
21721;SDS011;11023;48.274;7.794;2023-04-03T05:29:01;7.00;;;3.30;;
21721;SDS011;11023;48.274;7.794;2023-04-03T05:31:27;6.25;;;3.25;;
21721;SDS011;11023;48.274;7.794;2023-04-03T05:33:54;7.05;;;4.15;;
21721;SDS011;11023;48.274;7.794;2023-04-03T05:36:21;5.68;;;4.22;;
21721;SDS011;11023;48.274;7.794;2023-04-03T05:38:47;7.00;;;4.40;;
21721;SDS011;11023;48.274;7.794;2023-04-03T05:41:13;4.70;;;3.63;;
21721;SDS011;11023;48.274;7.794;2023-04-03T05:43:39;5.40;;;3.65;;
21721;SDS011;11023;48.274;7.794;2023-04-03T05:46:09;5.15;;;3.45;;
21721;SDS011;11023;48.274;7.794;2023-04-03T05:48:37;6.70;;;3.85;;
21721;SDS011;11023;48.274;7.794;2023-04-03T05:51:03;3.67;;;3.00;;
21721;SDS011;11023;48.274;7.794;2023-04-03T05:53:29;7.30;;;3.92;;
21721;SDS011;11023;48.274;7.794;2023-04-03T05:55:58;6.10;;;3.90;;
21721;SDS011;11023;48.274;7.794;2023-04-03T05:58:23;4.85;;;3.95;;
21721;SDS011;11023;48.274;7.794;2023-04-03T06:00:49;6.07;;;4.05;;
21721;SDS011;11023;48.274;7.794;2023-04-03T06:03:15;6.10;;;4.30;;
21721;SDS011;11023;48.274;7.794;2023-04-03T06:05:41;4.97;;;3.70;;
21721;SDS011;11023;48.274;7.794;2023-04-03T06:08:08;5.78;;;4.30;;
21721;SDS011;11023;48.274;7.794;2023-04-03T06:10:34;7.03;;;4.05;;
21721;SDS011;11023;48.274;7.794;2023-04-03T06:13:01;6.38;;;3.97;;
21721;SDS011;11023;48.274;7.794;2023-04-03T06:15:27;8.50;;;4.88;;
21721;SDS011;11023;48.274;7.794;2023-04-03T06:17:53;6.47;;;3.95;;
21721;SDS011;11023;48.274;7.794;2023-04-03T06:20:19;4.47;;;3.90;;
21721;SDS011;11023;48.274;7.794;2023-04-03T06:22:44;6.72;;;4.65;;
21721;SDS011;11023;48.274;7.794;2023-04-03T06:25:10;6.55;;;3.85;;
21721;SDS011;11023;48.274;7.794;2023-04-03T06:27:37;6.40;;;3.88;;
21721;SDS011;11023;48.274;7.794;2023-04-03T06:30:03;11.02;;;6.20;;
21721;SDS011;11023;48.274;7.794;2023-04-03T06:32:29;9.55;;;5.55;;
21721;SDS011;11023;48.274;7.794;2023-04-03T06:34:55;6.93;;;4.30;;
21721;SDS011;11023;48.274;7.794;2023-04-03T06:37:22;6.45;;;4.22;;
21721;SDS011;11023;48.274;7.794;2023-04-03T06:39:51;6.88;;;3.78;;
21721;SDS011;11023;48.274;7.794;2023-04-03T06:42:17;4.85;;;3.70;;
21721;SDS011;11023;48.274;7.794;2023-04-03T06:44:43;5.20;;;4.20;;
21721;SDS011;11023;48.274;7.794;2023-04-03T06:47:12;6.35;;;3.40;;
21721;SDS011;11023;48.274;7.794;2023-04-03T06:49:39;5.22;;;3.65;;
21721;SDS011;11023;48.274;7.794;2023-04-03T06:52:06;4.57;;;3.30;;
21721;SDS011;11023;48.274;7.794;2023-04-03T06:54:32;4.45;;;3.22;;
21721;SDS011;11023;48.274;7.794;2023-04-03T06:56:58;4.43;;;3.42;;
21721;SDS011;11023;48.274;7.794;2023-04-03T06:59:24;5.97;;;3.05;;
21721;SDS011;11023;48.274;7.794;2023-04-03T07:01:50;4.00;;;2.95;;
21721;SDS011;11023;48.274;7.794;2023-04-03T07:04:16;6.07;;;3.40;;
21721;SDS011;11023;48.274;7.794;2023-04-03T07:06:45;3.88;;;2.92;;
21721;SDS011;11023;48.274;7.794;2023-04-03T07:09:11;5.50;;;3.30;;
21721;SDS011;11023;48.274;7.794;2023-04-03T07:11:37;3.42;;;2.88;;
21721;SDS011;11023;48.274;7.794;2023-04-03T07:14:03;5.25;;;2.95;;
21721;SDS011;11023;48.274;7.794;2023-04-03T07:16:30;5.32;;;3.03;;
21721;SDS011;11023;48.274;7.794;2023-04-03T07:18:56;3.28;;;2.50;;
21721;SDS011;11023;48.274;7.794;2023-04-03T07:21:22;3.17;;;2.50;;
21721;SDS011;11023;48.274;7.794;2023-04-03T07:23:48;3.17;;;2.53;;
21721;SDS011;11023;48.274;7.794;2023-04-03T07:26:14;5.32;;;2.80;;
21721;SDS011;11023;48.274;7.794;2023-04-03T07:28:40;3.17;;;2.45;;
21721;SDS011;11023;48.274;7.794;2023-04-03T07:31:07;3.55;;;2.80;;
21721;SDS011;11023;48.274;7.794;2023-04-03T07:33:36;3.50;;;2.70;;
21721;SDS011;11023;48.274;7.794;2023-04-03T07:36:02;4.18;;;3.05;;
21721;SDS011;11023;48.274;7.794;2023-04-03T07:38:29;4.13;;;2.80;;
21721;SDS011;11023;48.274;7.794;2023-04-03T07:40:54;4.88;;;2.38;;
21721;SDS011;11023;48.274;7.794;2023-04-03T07:43:20;3.40;;;2.50;;
21721;SDS011;11023;48.274;7.794;2023-04-03T07:45:47;4.55;;;2.80;;
21721;SDS011;11023;48.274;7.794;2023-04-03T07:48:17;3.65;;;2.40;;
21721;SDS011;11023;48.274;7.794;2023-04-03T07:50:43;4.20;;;2.50;;
21721;SDS011;11023;48.274;7.794;2023-04-03T07:53:09;3.78;;;2.58;;
21721;SDS011;11023;48.274;7.794;2023-04-03T07:55:35;3.67;;;2.45;;
21721;SDS011;11023;48.274;7.794;2023-04-03T07:58:07;2.33;;;2.13;;
21721;SDS011;11023;48.274;7.794;2023-04-03T08:00:38;2.70;;;2.40;;
21721;SDS011;11023;48.274;7.794;2023-04-03T08:03:04;3.72;;;2.70;;
21721;SDS011;11023;48.274;7.794;2023-04-03T08:05:31;2.85;;;2.58;;
21721;SDS011;11023;48.274;7.794;2023-04-03T08:07:56;3.22;;;2.30;;
21721;SDS011;11023;48.274;7.794;2023-04-03T08:10:22;5.97;;;2.65;;
21721;SDS011;11023;48.274;7.794;2023-04-03T08:12:48;3.20;;;2.50;;
21721;SDS011;11023;48.274;7.794;2023-04-03T08:15:14;5.10;;;2.60;;
21721;SDS011;11023;48.274;7.794;2023-04-03T08:17:41;4.28;;;2.70;;
21721;SDS011;11023;48.274;7.794;2023-04-03T08:20:06;3.00;;;2.38;;
21721;SDS011;11023;48.274;7.794;2023-04-03T08:22:33;3.88;;;2.50;;
21721;SDS011;11023;48.274;7.794;2023-04-03T08:24:59;4.40;;;2.28;;
21721;SDS011;11023;48.274;7.794;2023-04-03T08:27:26;3.60;;;2.50;;
21721;SDS011;11023;48.274;7.794;2023-04-03T08:29:53;2.67;;;2.25;;
21721;SDS011;11023;48.274;7.794;2023-04-03T08:32:19;4.55;;;2.30;;
21721;SDS011;11023;48.274;7.794;2023-04-03T08:34:45;3.63;;;2.35;;
21721;SDS011;11023;48.274;7.794;2023-04-03T08:37:11;4.15;;;2.10;;
21721;SDS011;11023;48.274;7.794;2023-04-03T08:39:37;4.60;;;2.50;;
21721;SDS011;11023;48.274;7.794;2023-04-03T08:42:05;3.53;;;2.67;;
21721;SDS011;11023;48.274;7.794;2023-04-03T08:44:41;8.35;;;2.67;;
21721;SDS011;11023;48.274;7.794;2023-04-03T08:50:05;2.65;;;2.00;;
21721;SDS011;11023;48.274;7.794;2023-04-03T08:57:48;3.03;;;2.40;;
21721;SDS011;11023;48.274;7.794;2023-04-03T09:00:20;4.15;;;2.35;;
21721;SDS011;11023;48.274;7.794;2023-04-03T09:02:50;3.75;;;2.45;;
21721;SDS011;11023;48.274;7.794;2023-04-03T09:05:18;3.97;;;2.72;;
21721;SDS011;11023;48.274;7.794;2023-04-03T09:07:47;4.07;;;2.53;;
21721;SDS011;11023;48.274;7.794;2023-04-03T09:10:23;3.90;;;2.47;;
21721;SDS011;11023;48.274;7.794;2023-04-03T09:22:12;5.88;;;2.35;;
21721;SDS011;11023;48.274;7.794;2023-04-03T09:25:00;3.22;;;2.30;;
21721;SDS011;11023;48.274;7.794;2023-04-03T09:27:36;3.28;;;2.40;;
21721;SDS011;11023;48.274;7.794;2023-04-03T09:30:02;3.30;;;2.00;;
21721;SDS011;11023;48.274;7.794;2023-04-03T09:32:29;2.45;;;1.85;;
21721;SDS011;11023;48.274;7.794;2023-04-03T09:34:58;2.65;;;1.90;;
21721;SDS011;11023;48.274;7.794;2023-04-03T09:37:36;3.75;;;1.90;;
21721;SDS011;11023;48.274;7.794;2023-04-03T09:40:27;2.45;;;2.05;;
21721;SDS011;11023;48.274;7.794;2023-04-03T09:43:21;2.60;;;1.95;;
21721;SDS011;11023;48.274;7.794;2023-04-03T09:45:48;2.17;;;1.88;;
21721;SDS011;11023;48.274;7.794;2023-04-03T09:48:16;4.35;;;2.28;;
21721;SDS011;11023;48.274;7.794;2023-04-03T09:55:59;3.80;;;1.90;;
21721;SDS011;11023;48.274;7.794;2023-04-03T09:58:32;2.15;;;1.55;;
21721;SDS011;11023;48.274;7.794;2023-04-03T10:01:02;1.95;;;1.40;;
21721;SDS011;11023;48.274;7.794;2023-04-03T10:03:35;4.30;;;1.88;;
21721;SDS011;11023;48.274;7.794;2023-04-03T10:06:04;2.47;;;1.60;;
21721;SDS011;11023;48.274;7.794;2023-04-03T10:08:58;1.95;;;1.75;;
21721;SDS011;11023;48.274;7.794;2023-04-03T10:11:26;3.78;;;1.80;;
21721;SDS011;11023;48.274;7.794;2023-04-03T10:13:53;2.00;;;1.50;;
21721;SDS011;11023;48.274;7.794;2023-04-03T10:16:46;2.85;;;1.52;;
21721;SDS011;11023;48.274;7.794;2023-04-03T10:38:15;2.17;;;1.60;;
21721;SDS011;11023;48.274;7.794;2023-04-03T10:41:17;4.80;;;1.75;;
21721;SDS011;11023;48.274;7.794;2023-04-03T10:46:28;1.90;;;1.70;;
21721;SDS011;11023;48.274;7.794;2023-04-03T10:52:02;1.65;;;1.52;;
21721;SDS011;11023;48.274;7.794;2023-04-03T10:57:45;2.65;;;1.35;;
21721;SDS011;11023;48.274;7.794;2023-04-03T11:00:16;1.83;;;1.40;;
21721;SDS011;11023;48.274;7.794;2023-04-03T11:02:48;2.55;;;1.40;;
21721;SDS011;11023;48.274;7.794;2023-04-03T11:05:40;1.80;;;1.35;;
21721;SDS011;11023;48.274;7.794;2023-04-03T11:08:15;2.03;;;1.52;;
21721;SDS011;11023;48.274;7.794;2023-04-03T11:10:56;2.03;;;1.45;;
21721;SDS011;11023;48.274;7.794;2023-04-03T11:13:30;1.45;;;1.25;;
21721;SDS011;11023;48.274;7.794;2023-04-03T11:16:00;1.85;;;1.20;;
21721;SDS011;11023;48.274;7.794;2023-04-03T11:21:11;2.80;;;1.35;;
21721;SDS011;11023;48.274;7.794;2023-04-03T11:23:45;2.15;;;1.38;;
21721;SDS011;11023;48.274;7.794;2023-04-03T11:26:16;1.42;;;1.30;;
21721;SDS011;11023;48.274;7.794;2023-04-03T11:28:45;3.35;;;1.40;;
21721;SDS011;11023;48.274;7.794;2023-04-03T11:36:47;1.85;;;1.20;;
21721;SDS011;11023;48.274;7.794;2023-04-03T11:41:49;1.20;;;1.10;;
21721;SDS011;11023;48.274;7.794;2023-04-03T11:44:34;2.72;;;1.60;;
21721;SDS011;11023;48.274;7.794;2023-04-03T11:47:02;1.45;;;1.30;;
21721;SDS011;11023;48.274;7.794;2023-04-03T11:55:35;2.65;;;1.50;;
21721;SDS011;11023;48.274;7.794;2023-04-03T12:21:17;1.95;;;1.40;;
21721;SDS011;11023;48.274;7.794;2023-04-03T12:32:22;2.53;;;1.67;;
21721;SDS011;11023;48.274;7.794;2023-04-03T12:34:56;1.60;;;1.50;;
21721;SDS011;11023;48.274;7.794;2023-04-03T12:48:26;3.65;;;1.80;;
21721;SDS011;11023;48.274;7.794;2023-04-03T12:50:53;2.17;;;1.50;;
21721;SDS011;11023;48.274;7.794;2023-04-03T12:53:55;1.90;;;1.60;;
21721;SDS011;11023;48.274;7.794;2023-04-03T12:56:30;2.25;;;1.65;;
21721;SDS011;11023;48.274;7.794;2023-04-03T12:59:18;2.60;;;1.70;;
21721;SDS011;11023;48.274;7.794;2023-04-03T13:01:59;2.55;;;1.58;;
21721;SDS011;11023;48.274;7.794;2023-04-03T13:04:30;2.22;;;1.50;;
21721;SDS011;11023;48.274;7.794;2023-04-03T13:06:57;4.10;;;2.13;;
21721;SDS011;11023;48.274;7.794;2023-04-03T13:09:27;2.78;;;2.10;;
21721;SDS011;11023;48.274;7.794;2023-04-03T13:11:56;4.20;;;2.05;;
21721;SDS011;11023;48.274;7.794;2023-04-03T13:14:28;3.88;;;2.13;;
21721;SDS011;11023;48.274;7.794;2023-04-03T13:19:24;2.80;;;2.00;;
21721;SDS011;11023;48.274;7.794;2023-04-03T13:21:54;3.65;;;2.03;;
21721;SDS011;11023;48.274;7.794;2023-04-03T13:24:28;3.55;;;2.00;;
21721;SDS011;11023;48.274;7.794;2023-04-03T13:26:55;2.28;;;1.63;;
21721;SDS011;11023;48.274;7.794;2023-04-03T13:29:25;2.03;;;1.50;;
21721;SDS011;11023;48.274;7.794;2023-04-03T13:31:55;3.03;;;1.60;;
21721;SDS011;11023;48.274;7.794;2023-04-03T13:34:22;4.78;;;1.95;;
21721;SDS011;11023;48.274;7.794;2023-04-03T13:41:49;2.75;;;1.80;;
21721;SDS011;11023;48.274;7.794;2023-04-03T13:46:59;4.22;;;2.00;;
21721;SDS011;11023;48.274;7.794;2023-04-03T13:49:46;2.13;;;1.70;;
21721;SDS011;11023;48.274;7.794;2023-04-03T13:52:26;2.92;;;1.65;;
21721;SDS011;11023;48.274;7.794;2023-04-03T13:54:55;5.60;;;2.10;;
21721;SDS011;11023;48.274;7.794;2023-04-03T13:57:23;2.90;;;1.60;;
21721;SDS011;11023;48.274;7.794;2023-04-03T13:59:49;1.90;;;1.45;;
21721;SDS011;11023;48.274;7.794;2023-04-03T14:07:17;3.42;;;1.90;;
21721;SDS011;11023;48.274;7.794;2023-04-03T14:09:45;2.95;;;2.03;;
21721;SDS011;11023;48.274;7.794;2023-04-03T14:12:15;3.00;;;1.90;;
21721;SDS011;11023;48.274;7.794;2023-04-03T14:14:45;2.30;;;1.60;;
21721;SDS011;11023;48.274;7.794;2023-04-03T14:17:19;4.22;;;1.90;;
21721;SDS011;11023;48.274;7.794;2023-04-03T14:19:46;3.90;;;2.13;;
21721;SDS011;11023;48.274;7.794;2023-04-03T14:22:24;2.35;;;1.85;;
21721;SDS011;11023;48.274;7.794;2023-04-03T14:24:53;3.20;;;1.80;;
21721;SDS011;11023;48.274;7.794;2023-04-03T14:27:24;3.88;;;2.10;;
21721;SDS011;11023;48.274;7.794;2023-04-03T14:29:58;4.70;;;2.40;;
21721;SDS011;11023;48.274;7.794;2023-04-03T14:32:24;4.07;;;1.90;;
21721;SDS011;11023;48.274;7.794;2023-04-03T14:34:51;3.00;;;1.60;;
21721;SDS011;11023;48.274;7.794;2023-04-03T14:37:22;2.95;;;1.85;;
21721;SDS011;11023;48.274;7.794;2023-04-03T14:39:50;3.60;;;2.03;;
21721;SDS011;11023;48.274;7.794;2023-04-03T14:42:22;3.15;;;1.98;;
21721;SDS011;11023;48.274;7.794;2023-04-03T14:44:51;3.88;;;1.98;;
21721;SDS011;11023;48.274;7.794;2023-04-03T14:47:21;3.63;;;2.25;;
21721;SDS011;11023;48.274;7.794;2023-04-03T14:49:49;5.07;;;2.88;;
21721;SDS011;11023;48.274;7.794;2023-04-03T14:52:18;3.38;;;1.80;;
21721;SDS011;11023;48.274;7.794;2023-04-03T14:54:49;5.50;;;2.20;;
21721;SDS011;11023;48.274;7.794;2023-04-03T14:57:16;3.03;;;1.83;;
21721;SDS011;11023;48.274;7.794;2023-04-03T14:59:43;6.05;;;3.85;;
21721;SDS011;11023;48.274;7.794;2023-04-03T15:02:31;4.32;;;1.67;;
21721;SDS011;11023;48.274;7.794;2023-04-03T15:04:57;3.85;;;1.75;;
21721;SDS011;11023;48.274;7.794;2023-04-03T15:07:25;2.53;;;1.60;;
21721;SDS011;11023;48.274;7.794;2023-04-03T15:09:53;3.17;;;1.80;;
21721;SDS011;11023;48.274;7.794;2023-04-03T15:12:21;3.17;;;1.90;;
21721;SDS011;11023;48.274;7.794;2023-04-03T15:14:47;3.75;;;1.80;;
21721;SDS011;11023;48.274;7.794;2023-04-03T15:17:19;3.58;;;2.20;;
21721;SDS011;11023;48.274;7.794;2023-04-03T15:19:47;3.65;;;2.20;;
21721;SDS011;11023;48.274;7.794;2023-04-03T15:22:17;4.10;;;2.13;;
21721;SDS011;11023;48.274;7.794;2023-04-03T15:24:43;3.40;;;2.10;;
21721;SDS011;11023;48.274;7.794;2023-04-03T15:27:10;4.97;;;1.88;;
21721;SDS011;11023;48.274;7.794;2023-04-03T15:29:37;2.67;;;1.83;;
21721;SDS011;11023;48.274;7.794;2023-04-03T15:32:04;2.45;;;1.90;;
21721;SDS011;11023;48.274;7.794;2023-04-03T15:34:30;4.13;;;2.25;;
21721;SDS011;11023;48.274;7.794;2023-04-03T15:36:56;3.55;;;1.50;;
21721;SDS011;11023;48.274;7.794;2023-04-03T15:39:22;4.78;;;1.80;;
21721;SDS011;11023;48.274;7.794;2023-04-03T15:41:49;3.97;;;2.05;;
21721;SDS011;11023;48.274;7.794;2023-04-03T15:44:16;3.63;;;2.08;;
21721;SDS011;11023;48.274;7.794;2023-04-03T15:46:42;5.60;;;2.20;;
21721;SDS011;11023;48.274;7.794;2023-04-03T15:49:09;7.20;;;1.90;;
21721;SDS011;11023;48.274;7.794;2023-04-03T15:51:35;4.45;;;1.80;;
21721;SDS011;11023;48.274;7.794;2023-04-03T15:54:00;6.00;;;2.00;;
21721;SDS011;11023;48.274;7.794;2023-04-03T15:56:26;3.15;;;1.77;;
21721;SDS011;11023;48.274;7.794;2023-04-03T15:58:52;5.18;;;1.80;;
21721;SDS011;11023;48.274;7.794;2023-04-03T16:01:17;5.80;;;1.92;;
21721;SDS011;11023;48.274;7.794;2023-04-03T16:03:43;2.88;;;1.60;;
21721;SDS011;11023;48.274;7.794;2023-04-03T16:06:16;4.97;;;1.67;;
21721;SDS011;11023;48.274;7.794;2023-04-03T16:08:43;5.40;;;1.90;;
21721;SDS011;11023;48.274;7.794;2023-04-03T16:11:11;4.30;;;1.73;;
21721;SDS011;11023;48.274;7.794;2023-04-03T16:13:36;4.47;;;1.80;;
21721;SDS011;11023;48.274;7.794;2023-04-03T16:16:02;3.45;;;1.90;;
21721;SDS011;11023;48.274;7.794;2023-04-03T16:18:29;3.65;;;1.90;;
21721;SDS011;11023;48.274;7.794;2023-04-03T16:20:55;2.78;;;1.92;;
21721;SDS011;11023;48.274;7.794;2023-04-03T16:23:21;7.95;;;2.60;;
21721;SDS011;11023;48.274;7.794;2023-04-03T16:25:47;3.20;;;2.45;;
21721;SDS011;11023;48.274;7.794;2023-04-03T16:28:14;5.65;;;1.85;;
21721;SDS011;11023;48.274;7.794;2023-04-03T16:30:42;5.72;;;1.85;;
21721;SDS011;11023;48.274;7.794;2023-04-03T16:33:09;2.38;;;1.42;;
21721;SDS011;11023;48.274;7.794;2023-04-03T16:35:36;1.55;;;1.45;;
21721;SDS011;11023;48.274;7.794;2023-04-03T16:38:02;3.00;;;1.90;;
21721;SDS011;11023;48.274;7.794;2023-04-03T16:40:28;3.10;;;2.03;;
21721;SDS011;11023;48.274;7.794;2023-04-03T16:42:54;4.03;;;2.30;;
21721;SDS011;11023;48.274;7.794;2023-04-03T16:45:20;5.50;;;2.40;;
21721;SDS011;11023;48.274;7.794;2023-04-03T16:47:46;2.97;;;2.00;;
21721;SDS011;11023;48.274;7.794;2023-04-03T16:50:12;4.20;;;2.17;;
21721;SDS011;11023;48.274;7.794;2023-04-03T16:52:37;4.47;;;2.10;;
21721;SDS011;11023;48.274;7.794;2023-04-03T16:55:03;3.55;;;2.00;;
21721;SDS011;11023;48.274;7.794;2023-04-03T16:57:31;2.00;;;1.60;;
21721;SDS011;11023;48.274;7.794;2023-04-03T16:59:56;4.38;;;2.42;;
21721;SDS011;11023;48.274;7.794;2023-04-03T17:02:23;3.88;;;2.05;;
21721;SDS011;11023;48.274;7.794;2023-04-03T17:04:52;5.28;;;2.70;;